Terminal Aerodrome Forecast
Issued by NWS Corpus Christi, TX

Home | Current Version | Previous Version | Text Only | Print | Product List | Glossary On
Versions: 1 2 3 4 5 6 7 8 9 10 11 12 13 14 15 16
734
FTUS44 KCRP 191120
TAFCRP
TAF
KCRP 191120Z 1912/2012 VRB05KT 6SM -SHRA BR SCT006 OVC018
      TEMPO 1912/1916 4SM -SHRA OVC006
     FM191600 31005KT P6SM OVC015
     FM192000 21004KT P6SM SCT035
     FM200700 17005KT 3SM BR OVC007=

USA.gov is the U.S. government's official web portal to all federal, state and local government web resources and services.